createdAt,value
2023-06-14T00:02:09.265Z,54.71
2023-06-14T00:04:37.834Z,54.22
2023-06-14T00:07:05.973Z,54.33
2023-06-14T00:09:34.998Z,54.41
2023-06-14T00:12:02.982Z,54.40
2023-06-14T00:14:30.891Z,54.41
2023-06-14T00:16:59.828Z,54.73
2023-06-14T00:19:28.054Z,55.19
2023-06-14T00:21:56.411Z,54.97
2023-06-14T00:24:24.213Z,55.14
2023-06-14T00:26:53.349Z,55.89
2023-06-14T00:29:21.099Z,56.22
2023-06-14T00:31:48.838Z,55.95
2023-06-14T00:34:16.525Z,56.71
2023-06-14T00:36:44.295Z,56.65
2023-06-14T00:39:12.977Z,56.98
2023-06-14T00:41:41.289Z,56.89
2023-06-14T00:44:10.361Z,57.39
2023-06-14T00:46:38.118Z,57.60
2023-06-14T00:49:05.971Z,57.83
2023-06-14T00:51:33.717Z,57.46
2023-06-14T00:54:01.549Z,57.94
2023-06-14T00:56:29.508Z,57.87
2023-06-14T00:58:58.073Z,58.22
2023-06-14T01:01:27.258Z,58.60
2023-06-14T01:03:55.126Z,58.25
2023-06-14T01:06:30.386Z,58.41
2023-06-14T01:09:08.696Z,58.31
2023-06-14T01:11:53.041Z,58.45
2023-06-14T01:14:23.313Z,58.74
2023-06-14T01:16:54.491Z,59.33
2023-06-14T01:19:26.711Z,59.09
2023-06-14T01:21:54.624Z,59.43
2023-06-14T01:24:26.578Z,58.80
2023-06-14T01:26:57.891Z,59.44
2023-06-14T01:29:28.760Z,59.92
2023-06-14T01:31:56.720Z,59.74
2023-06-14T01:34:24.574Z,59.81
2023-06-14T01:36:54.187Z,59.94
2023-06-14T01:39:24.453Z,60.75
2023-06-14T01:41:53.751Z,60.53
2023-06-14T01:44:22.362Z,60.47
2023-06-14T01:46:50.673Z,60.43
2023-06-14T01:49:18.477Z,60.35
2023-06-14T01:51:46.147Z,60.27
2023-06-14T01:54:13.801Z,60.17
2023-06-14T01:56:43.123Z,60.87
2023-06-14T01:59:10.920Z,60.97
2023-06-14T02:01:38.673Z,60.05
2023-06-14T02:04:07.006Z,60.62
2023-06-14T02:06:35.600Z,61.35
2023-06-14T02:09:04.041Z,61.77
2023-06-14T02:11:31.854Z,61.99
2023-06-14T02:14:01.496Z,62.88
2023-06-14T02:16:30.835Z,63.27
2023-06-14T02:18:58.934Z,63.70
2023-06-14T02:21:26.641Z,63.07
2023-06-14T02:23:54.375Z,63.13
2023-06-14T02:26:22.078Z,63.38
2023-06-14T02:28:49.885Z,62.83
2023-06-14T02:31:19.162Z,63.43
2023-06-14T02:33:46.892Z,63.27
2023-06-14T02:36:14.562Z,63.53
2023-06-14T02:38:42.242Z,63.04
2023-06-14T02:41:10.087Z,62.44
2023-06-14T02:43:37.834Z,63.28
2023-06-14T02:46:05.967Z,63.44
2023-06-14T02:48:35.638Z,63.68
2023-06-14T02:51:03.362Z,63.38
2023-06-14T02:53:31.324Z,63.34
2023-06-14T02:55:59.180Z,63.73
2023-06-14T02:58:27.025Z,64.12
2023-06-14T03:00:55.101Z,64.03
2023-06-14T03:03:25.581Z,63.89
2023-06-14T03:05:55.723Z,64.23
2023-06-14T03:08:28.154Z,64.11
2023-06-14T03:10:57.172Z,64.33
2023-06-14T03:13:25.244Z,64.19
2023-06-14T03:15:53.147Z,64.31
2023-06-14T03:18:25.613Z,64.52
2023-06-14T03:20:57.986Z,64.45
2023-06-14T03:23:26.353Z,64.28
2023-06-14T03:25:54.756Z,63.76
2023-06-14T03:28:22.522Z,62.98
2023-06-14T03:30:50.277Z,63.92
2023-06-14T03:33:18.231Z,64.62
2023-06-14T03:35:46.173Z,64.54
2023-06-14T03:38:15.268Z,64.59
2023-06-14T03:40:42.938Z,63.60
2023-06-14T03:43:10.933Z,63.99
2023-06-14T03:45:38.686Z,62.96
2023-06-14T03:48:07.961Z,62.87
2023-06-14T03:50:39.018Z,63.35
2023-06-14T03:53:06.921Z,63.58
2023-06-14T03:58:07.124Z,63.80
2023-06-14T04:00:35.091Z,63.27
2023-06-14T04:03:04.642Z,63.18
2023-06-14T04:05:32.759Z,62.71
2023-06-14T04:08:01.876Z,63.10
2023-06-14T04:10:30.115Z,62.43
2023-06-14T04:12:59.238Z,62.66
2023-06-14T04:15:29.085Z,62.12
2023-06-14T04:17:59.396Z,61.68
2023-06-14T04:20:27.548Z,60.75
2023-06-14T04:22:58.221Z,60.47
2023-06-14T04:25:27.290Z,59.87
2023-06-14T04:27:56.380Z,58.63
2023-06-14T04:30:27.497Z,58.17
2023-06-14T04:32:56.965Z,56.82
2023-06-14T04:35:26.411Z,55.16
2023-06-14T04:37:54.607Z,53.35
2023-06-14T04:40:22.593Z,52.03
2023-06-14T04:42:51.861Z,51.03
2023-06-14T04:45:19.662Z,50.56
2023-06-14T04:47:48.937Z,51.09
2023-06-14T04:50:19.246Z,50.40
2023-06-14T04:52:47.048Z,48.74
2023-06-14T04:55:14.997Z,49.85
2023-06-14T04:57:43.032Z,50.21
2023-06-14T05:00:13.046Z,49.58
2023-06-14T05:02:41.761Z,47.89
2023-06-14T05:05:12.036Z,48.54
2023-06-14T05:07:42.329Z,47.82
2023-06-14T05:10:10.950Z,47.04
2023-06-14T05:12:39.409Z,46.17
2023-06-14T05:15:09.833Z,45.58
2023-06-14T05:17:38.368Z,45.88
2023-06-14T05:20:07.782Z,45.27
2023-06-14T05:22:36.803Z,45.09
2023-06-14T05:25:04.802Z,45.16
2023-06-14T05:27:32.639Z,44.06
2023-06-14T05:30:00.505Z,44.12
2023-06-14T05:32:28.303Z,43.96
2023-06-14T05:34:56.022Z,43.59
2023-06-14T05:37:23.785Z,43.55
2023-06-14T05:39:53.114Z,43.60
2023-06-14T05:42:20.831Z,43.37
2023-06-14T05:44:48.605Z,43.13
2023-06-14T05:47:16.538Z,41.83
2023-06-14T05:49:44.283Z,41.61
2023-06-14T05:52:14.029Z,41.94
2023-06-14T05:54:42.436Z,42.59
2023-06-14T05:57:12.874Z,42.38
2023-06-14T05:59:41.194Z,42.70
2023-06-14T06:02:09.090Z,42.87
2023-06-14T06:04:37.152Z,42.69
2023-06-14T06:07:06.324Z,42.19
2023-06-14T06:09:34.977Z,42.28
2023-06-14T06:12:02.716Z,41.33
2023-06-14T06:14:31.974Z,40.82
2023-06-14T06:17:00.248Z,40.77
2023-06-14T06:19:28.142Z,41.36
2023-06-14T06:21:55.893Z,41.47
2023-06-14T06:24:24.130Z,40.78
2023-06-14T06:26:52.054Z,40.18
2023-06-14T06:29:19.764Z,40.72
2023-06-14T06:31:48.924Z,40.94
2023-06-14T06:34:16.963Z,40.70
2023-06-14T06:36:44.895Z,39.75
2023-06-14T06:39:12.948Z,39.50
2023-06-14T06:41:41.025Z,39.40
2023-06-14T06:44:10.881Z,40.23
2023-06-14T06:46:41.295Z,40.12
2023-06-14T06:49:12.888Z,40.60
2023-06-14T06:51:44.115Z,41.23
2023-06-14T06:54:12.734Z,39.79
2023-06-14T06:56:40.784Z,39.85
2023-06-14T06:59:08.537Z,39.18
2023-06-14T07:01:37.771Z,38.67
2023-06-14T07:04:05.837Z,38.93
2023-06-14T07:06:36.379Z,39.82
2023-06-14T07:09:05.906Z,39.53
2023-06-14T07:11:33.673Z,38.17
2023-06-14T07:14:01.829Z,37.98
2023-06-14T07:16:29.643Z,38.26
2023-06-14T07:18:57.619Z,37.78
2023-06-14T07:21:26.733Z,37.18
2023-06-14T07:23:56.381Z,37.86
2023-06-14T07:26:24.779Z,38.18
2023-06-14T07:28:52.746Z,37.58
2023-06-14T07:31:20.664Z,37.32
2023-06-14T07:33:48.561Z,36.43
2023-06-14T07:36:16.752Z,36.79
2023-06-14T07:38:44.491Z,36.41
2023-06-14T07:41:13.619Z,37.32
2023-06-14T07:43:41.395Z,36.37
2023-06-14T07:46:10.183Z,34.72
2023-06-14T07:48:38.601Z,33.90
2023-06-14T07:51:06.481Z,34.27
2023-06-14T07:53:34.424Z,33.72
2023-06-14T07:56:03.662Z,35.92
2023-06-14T07:58:32.822Z,35.24
2023-06-14T08:01:01.206Z,36.76
2023-06-14T08:03:29.087Z,35.06
2023-06-14T08:05:56.987Z,34.58
2023-06-14T08:08:24.835Z,34.74
2023-06-14T08:10:52.608Z,34.36
2023-06-14T08:13:20.462Z,33.99
2023-06-14T08:15:50.044Z,34.26
2023-06-14T08:18:17.871Z,34.53
2023-06-14T08:20:46.011Z,33.06
2023-06-14T08:23:14.304Z,33.89
2023-06-14T08:25:42.087Z,34.04
2023-06-14T08:28:09.864Z,33.95
2023-06-14T08:30:37.632Z,33.49
2023-06-14T08:33:15.986Z,33.01
2023-06-14T08:35:45.815Z,33.04
2023-06-14T08:38:14.070Z,32.24
2023-06-14T08:40:43.669Z,32.82
2023-06-14T08:43:11.777Z,31.86
2023-06-14T08:45:39.607Z,31.89
2023-06-14T08:48:10.298Z,31.72
2023-06-14T08:50:42.987Z,32.14
2023-06-14T08:53:20.643Z,32.07
2023-06-14T08:55:49.610Z,31.16
2023-06-14T08:58:17.593Z,30.33
2023-06-14T09:00:45.899Z,29.32
2023-06-14T09:03:16.066Z,29.98
2023-06-14T09:05:45.048Z,30.91
2023-06-14T09:08:13.055Z,31.44
2023-06-14T09:10:42.596Z,30.18
2023-06-14T09:13:10.533Z,29.92
2023-06-14T09:15:38.465Z,28.91
2023-06-14T09:18:07.379Z,27.53
2023-06-14T09:20:37.082Z,25.92
2023-06-14T09:23:06.888Z,24.63
2023-06-14T09:25:39.985Z,24.51
2023-06-14T09:28:10.474Z,25.93
2023-06-14T09:30:39.541Z,26.83
2023-06-14T09:33:07.584Z,27.52
2023-06-14T09:35:37.465Z,27.84
2023-06-14T09:38:05.707Z,28.92
2023-06-14T09:40:37.786Z,27.41
2023-06-14T09:43:07.794Z,27.59
2023-06-14T09:45:35.657Z,26.55
2023-06-14T09:48:08.037Z,26.58
2023-06-14T09:50:38.000Z,28.47
2023-06-14T09:53:09.079Z,27.56
2023-06-14T09:55:39.222Z,27.13
2023-06-14T09:58:09.369Z,27.04
2023-06-14T10:00:39.455Z,26.92
2023-06-14T10:03:13.450Z,28.01
2023-06-14T10:05:45.789Z,28.89
2023-06-14T10:08:18.037Z,28.50
2023-06-14T10:10:46.531Z,27.37
2023-06-14T10:13:15.612Z,27.72
2023-06-14T10:15:53.279Z,27.56
2023-06-14T10:18:28.218Z,27.01
2023-06-14T10:21:09.857Z,26.66
2023-06-14T10:23:43.870Z,26.85
2023-06-14T10:26:20.808Z,26.88
2023-06-14T10:28:59.269Z,25.61
2023-06-14T10:31:43.024Z,26.44
2023-06-14T10:34:11.416Z,26.27
2023-06-14T10:36:45.106Z,26.56
2023-06-14T10:39:18.073Z,26.44
2023-06-14T10:41:54.593Z,26.03
2023-06-14T10:44:41.899Z,26.08
2023-06-14T10:47:11.478Z,27.84
2023-06-14T10:49:44.356Z,26.81
2023-06-14T10:52:20.136Z,25.65
2023-06-14T10:55:10.290Z,26.06
2023-06-14T10:57:50.959Z,25.79
2023-06-14T11:00:24.616Z,25.78
2023-06-14T11:03:37.418Z,25.63
2023-06-14T11:06:17.108Z,25.47
2023-06-14T11:09:13.555Z,25.75
2023-06-14T11:11:44.864Z,24.56
2023-06-14T11:14:12.735Z,24.80
2023-06-14T11:16:40.629Z,24.82
2023-06-14T11:19:08.620Z,24.21
2023-06-14T11:21:37.009Z,24.82
2023-06-14T11:24:06.681Z,25.29
2023-06-14T11:26:35.896Z,25.98
2023-06-14T11:29:04.010Z,25.74
2023-06-14T11:31:32.131Z,26.59
2023-06-14T11:34:01.683Z,26.11
2023-06-14T11:36:31.564Z,24.58
2023-06-14T11:39:04.096Z,25.33
2023-06-14T11:41:38.909Z,24.76
2023-06-14T11:44:07.213Z,25.12
2023-06-14T11:46:35.694Z,25.43
2023-06-14T11:49:05.604Z,23.75
2023-06-14T11:51:34.827Z,23.54
2023-06-14T11:54:04.024Z,24.48
2023-06-14T11:56:32.960Z,24.13
2023-06-14T11:59:02.377Z,25.43
2023-06-14T12:01:32.129Z,23.89
2023-06-14T12:04:01.754Z,23.38
2023-06-14T12:06:34.566Z,22.58
2023-06-14T12:09:07.393Z,22.10
2023-06-14T12:11:37.930Z,22.73
2023-06-14T12:14:08.102Z,22.52
2023-06-14T12:16:36.855Z,22.30
2023-06-14T12:19:12.368Z,23.54
2023-06-14T12:21:41.389Z,22.51
2023-06-14T12:24:13.095Z,22.91
2023-06-14T12:26:42.159Z,22.92
2023-06-14T12:29:13.894Z,22.88
2023-06-14T12:31:42.210Z,22.49
2023-06-14T12:34:10.162Z,22.94
2023-06-14T12:36:42.832Z,21.62
2023-06-14T12:39:11.029Z,22.00
2023-06-14T12:41:39.035Z,21.33
2023-06-14T12:44:06.866Z,22.24
2023-06-14T12:46:37.831Z,23.70
2023-06-14T12:49:06.473Z,23.68
2023-06-14T12:51:34.220Z,23.55
2023-06-14T12:54:02.306Z,22.79
2023-06-14T12:56:30.951Z,23.92
2023-06-14T12:58:58.808Z,23.77
2023-06-14T13:01:27.053Z,23.48
2023-06-14T13:03:56.315Z,23.22
2023-06-14T13:06:24.344Z,23.23
2023-06-14T13:08:52.132Z,24.34
2023-06-14T13:11:20.113Z,23.06
2023-06-14T13:13:47.777Z,23.48
2023-06-14T13:16:15.820Z,24.21
2023-06-14T13:18:43.747Z,22.92
2023-06-14T13:21:12.977Z,23.41
2023-06-14T13:23:40.806Z,23.67
2023-06-14T13:26:08.567Z,24.72
2023-06-14T13:28:36.445Z,22.23
2023-06-14T13:31:04.917Z,22.98
2023-06-14T13:33:34.131Z,23.70
2023-06-14T13:36:02.039Z,23.64
2023-06-14T13:38:31.200Z,24.62
2023-06-14T13:40:58.980Z,25.88
2023-06-14T13:43:26.970Z,26.16
2023-06-14T13:54:16.070Z,24.31
2023-06-14T13:56:44.474Z,24.50
2023-06-14T14:01:58.573Z,23.88
2023-06-14T14:09:59.162Z,24.70
2023-06-14T14:12:26.944Z,24.80
2023-06-14T14:14:54.796Z,25.33
2023-06-14T14:17:22.819Z,24.29
2023-06-14T14:22:36.314Z,25.57
2023-06-14T14:27:51.508Z,24.95
2023-06-14T14:30:21.561Z,23.67
2023-06-14T14:32:49.395Z,23.74
2023-06-14T14:35:17.621Z,24.08
2023-06-14T14:37:45.521Z,24.50
2023-06-14T14:40:15.625Z,24.71
2023-06-14T14:42:44.470Z,24.02
2023-06-14T14:45:12.755Z,24.17
2023-06-14T14:47:40.673Z,24.84
2023-06-14T14:50:09.946Z,25.36
2023-06-14T14:52:38.176Z,25.11
2023-06-14T14:55:07.179Z,25.49
2023-06-14T14:57:37.482Z,26.81
2023-06-14T15:00:06.678Z,26.72
2023-06-14T15:02:34.761Z,27.27
2023-06-14T15:05:03.643Z,26.40
2023-06-14T15:07:34.654Z,26.87
2023-06-14T15:10:02.456Z,27.82
2023-06-14T15:12:31.125Z,26.92
2023-06-14T15:15:00.453Z,25.91
2023-06-14T15:17:28.893Z,26.29
2023-06-14T15:19:56.892Z,26.22
2023-06-14T15:22:24.682Z,26.21
2023-06-14T15:24:52.862Z,25.12
2023-06-14T15:27:20.756Z,24.87
2023-06-14T15:29:51.328Z,25.17
2023-06-14T15:32:21.057Z,26.03
2023-06-14T15:34:49.549Z,25.72
2023-06-14T15:37:17.499Z,26.38
2023-06-14T15:39:45.357Z,25.87
2023-06-14T15:42:13.173Z,25.39
2023-06-14T15:44:42.635Z,25.38
2023-06-14T15:47:10.457Z,25.35
2023-06-14T15:49:39.507Z,24.73
2023-06-14T15:52:08.233Z,24.74
2023-06-14T15:54:36.038Z,25.57
2023-06-14T15:57:04.240Z,26.50
2023-06-14T15:59:31.969Z,25.70
2023-06-14T16:01:59.818Z,25.34
2023-06-14T16:04:27.808Z,26.38
2023-06-14T16:06:57.050Z,25.50
2023-06-14T16:09:24.867Z,25.88
2023-06-14T16:11:52.690Z,27.41
2023-06-14T16:14:20.464Z,26.87
2023-06-14T16:16:49.848Z,27.35
2023-06-14T16:19:19.338Z,27.94
2023-06-14T16:21:47.117Z,27.79
2023-06-14T16:24:16.459Z,26.77
2023-06-14T16:26:44.593Z,27.29
2023-06-14T16:29:12.309Z,28.00
2023-06-14T16:31:40.156Z,27.10
2023-06-14T16:34:12.248Z,26.94
2023-06-14T16:36:40.307Z,27.72
2023-06-14T16:39:08.034Z,26.62
2023-06-14T16:41:37.349Z,26.29
2023-06-14T16:44:06.123Z,26.41
2023-06-14T16:46:35.391Z,26.81
2023-06-14T16:49:04.237Z,26.36
2023-06-14T16:51:32.045Z,26.08
2023-06-14T16:53:59.948Z,26.14
2023-06-14T16:56:28.738Z,26.96
2023-06-14T16:58:58.803Z,27.54
2023-06-14T17:01:27.886Z,27.97
2023-06-14T17:03:55.957Z,27.54
2023-06-14T17:06:25.167Z,26.91
2023-06-14T17:08:54.057Z,27.58
2023-06-14T17:11:23.600Z,28.10
2023-06-14T17:13:51.706Z,27.46
2023-06-14T17:16:21.606Z,27.75
2023-06-14T17:18:49.723Z,27.99
2023-06-14T17:21:17.690Z,28.18
2023-06-14T17:23:45.619Z,27.13
2023-06-14T17:26:13.657Z,27.61
2023-06-14T17:28:41.459Z,28.47
2023-06-14T17:31:09.483Z,29.35
2023-06-14T17:33:38.837Z,28.99
2023-06-14T17:36:06.990Z,28.27
2023-06-14T17:38:34.803Z,29.07
2023-06-14T17:41:02.648Z,29.12
2023-06-14T17:43:30.504Z,28.39
2023-06-14T17:45:59.732Z,28.70
2023-06-14T17:48:27.590Z,29.31
2023-06-14T17:50:56.784Z,29.45
2023-06-14T17:53:24.867Z,29.71
2023-06-14T17:55:54.089Z,30.21
2023-06-14T17:58:22.570Z,28.97
2023-06-14T18:00:51.408Z,28.92
2023-06-14T18:03:19.851Z,28.87
2023-06-14T18:05:47.848Z,29.71
2023-06-14T18:08:17.055Z,28.66
2023-06-14T18:10:44.875Z,28.90
2023-06-14T18:13:12.781Z,28.85
2023-06-14T18:15:40.612Z,29.03
2023-06-14T18:18:08.577Z,28.87
2023-06-14T18:20:36.365Z,29.41
2023-06-14T18:23:04.322Z,29.34
2023-06-14T18:25:33.950Z,29.12
2023-06-14T18:28:01.931Z,29.95
2023-06-14T18:30:29.811Z,29.42
2023-06-14T18:32:59.786Z,29.99
2023-06-14T18:35:28.187Z,29.46
2023-06-14T18:37:55.992Z,30.42
2023-06-14T18:40:23.962Z,30.24
2023-06-14T18:42:53.173Z,30.48
2023-06-14T18:45:21.787Z,30.34
2023-06-14T18:47:50.087Z,30.96
2023-06-14T18:50:19.104Z,30.38
2023-06-14T18:52:47.531Z,30.40
2023-06-14T18:55:16.037Z,30.16
2023-06-14T18:57:43.954Z,30.71
2023-06-14T19:00:14.894Z,31.55
2023-06-14T19:02:43.123Z,31.81
2023-06-14T19:05:13.750Z,32.01
2023-06-14T19:07:41.555Z,32.23
2023-06-14T19:10:10.061Z,32.20
2023-06-14T19:12:38.380Z,33.15
2023-06-14T19:15:08.095Z,32.64
2023-06-14T19:17:37.323Z,33.22
2023-06-14T19:20:06.523Z,32.64
2023-06-14T19:22:34.538Z,33.39
2023-06-14T19:25:02.653Z,33.15
2023-06-14T19:27:30.804Z,33.21
2023-06-14T19:30:00.003Z,34.08
2023-06-14T19:32:28.001Z,34.64
2023-06-14T19:34:58.732Z,33.85
2023-06-14T19:37:27.930Z,34.33
2023-06-14T19:39:56.195Z,34.23
2023-06-14T19:42:24.080Z,34.52
2023-06-14T19:44:52.048Z,34.00
2023-06-14T19:47:20.033Z,33.85
2023-06-14T19:49:47.882Z,34.43
2023-06-14T19:52:17.121Z,34.15
2023-06-14T19:54:44.870Z,34.64
2023-06-14T19:57:13.051Z,34.93
2023-06-14T19:59:40.948Z,35.18
2023-06-14T20:02:09.696Z,35.66
2023-06-14T20:04:38.319Z,35.32
2023-06-14T20:07:07.437Z,35.58
2023-06-14T20:09:36.945Z,35.79
2023-06-14T20:12:05.434Z,35.90
2023-06-14T20:14:35.616Z,36.72
2023-06-14T20:17:03.482Z,36.89
2023-06-14T20:19:31.463Z,37.14
2023-06-14T20:21:59.246Z,37.36
2023-06-14T20:24:27.103Z,37.22
2023-06-14T20:26:56.355Z,36.59
2023-06-14T20:29:24.174Z,36.92
2023-06-14T20:31:52.212Z,37.71
2023-06-14T20:34:19.933Z,37.61
2023-06-14T20:36:47.707Z,37.60
2023-06-14T20:39:15.581Z,38.08
2023-06-14T20:41:43.410Z,38.07
2023-06-14T20:44:12.649Z,38.84
2023-06-14T20:46:44.464Z,37.99
2023-06-14T20:49:13.712Z,38.28
2023-06-14T20:51:41.722Z,38.85
2023-06-14T20:54:09.542Z,39.28
2023-06-14T20:56:37.320Z,39.34
2023-06-14T20:59:05.097Z,39.32
2023-06-14T21:01:36.524Z,39.99
2023-06-14T21:04:05.072Z,39.92
2023-06-14T21:06:33.533Z,40.48
2023-06-14T21:09:01.616Z,39.98
2023-06-14T21:11:29.485Z,40.09
2023-06-14T21:13:57.282Z,40.22
2023-06-14T21:16:25.179Z,40.28
2023-06-14T21:18:54.526Z,40.31
2023-06-14T21:21:22.301Z,40.80
2023-06-14T21:23:50.300Z,41.00
2023-06-14T21:26:18.283Z,41.45
2023-06-14T21:28:46.290Z,40.84
2023-06-14T21:31:17.005Z,41.24
2023-06-14T21:33:45.086Z,41.29
2023-06-14T21:36:14.385Z,41.73
2023-06-14T21:38:42.123Z,41.53
2023-06-14T21:41:10.994Z,41.72
2023-06-14T21:43:39.120Z,41.24
2023-06-14T21:46:06.958Z,42.12
2023-06-14T21:48:34.808Z,42.23
2023-06-14T21:51:02.693Z,42.56
2023-06-14T21:53:32.897Z,42.66
2023-06-14T21:56:00.682Z,42.08
2023-06-14T21:58:28.453Z,42.22
2023-06-14T22:00:56.345Z,42.78
2023-06-14T22:03:24.328Z,42.53
2023-06-14T22:05:52.385Z,41.89
2023-06-14T22:08:20.595Z,42.59
2023-06-14T22:10:50.416Z,43.14
2023-06-14T22:13:18.331Z,42.77
2023-06-14T22:15:46.664Z,43.46
2023-06-14T22:18:14.554Z,43.01
2023-06-14T22:20:42.877Z,43.90
2023-06-14T22:23:10.616Z,42.82
2023-06-14T22:25:38.320Z,43.73
2023-06-14T22:28:07.569Z,43.89
2023-06-14T22:30:37.318Z,44.15
2023-06-14T22:33:05.302Z,43.68
2023-06-14T22:35:33.357Z,43.81
2023-06-14T22:38:01.778Z,43.57
2023-06-14T22:40:29.968Z,43.64
2023-06-14T22:43:01.196Z,43.47
2023-06-14T22:45:30.985Z,43.46
2023-06-14T22:47:59.350Z,43.44
2023-06-14T22:50:29.138Z,43.94
2023-06-14T22:52:57.734Z,43.08
2023-06-14T22:55:27.477Z,43.58
2023-06-14T22:57:55.627Z,43.57
2023-06-14T23:00:23.568Z,43.73
2023-06-14T23:02:53.221Z,43.88
2023-06-14T23:05:21.990Z,44.28
2023-06-14T23:07:49.853Z,44.47
2023-06-14T23:10:18.961Z,43.73
2023-06-14T23:12:47.448Z,43.55
2023-06-14T23:15:16.212Z,44.34
2023-06-14T23:17:45.717Z,43.71
2023-06-14T23:20:16.652Z,43.92
2023-06-14T23:22:44.767Z,43.93
2023-06-14T23:25:14.756Z,44.21
2023-06-14T23:27:44.935Z,44.68
2023-06-14T23:30:14.695Z,44.48
2023-06-14T23:32:42.514Z,44.66
2023-06-14T23:35:11.607Z,44.49
2023-06-14T23:37:40.814Z,44.07
2023-06-14T23:40:12.886Z,43.50
2023-06-14T23:42:42.489Z,43.29
2023-06-14T23:45:12.520Z,44.13
2023-06-14T23:47:41.186Z,44.38
2023-06-14T23:50:10.163Z,44.50
2023-06-14T23:52:41.046Z,45.05
2023-06-14T23:55:18.216Z,45.23
2023-06-14T23:57:46.101Z,45.28
